sensor_id;sensor_type;location;lat;lon;timestamp;P1;durP1;ratioP1;P2;durP2;ratioP2
81160;SDS011;70637;48.514;14.500;2023-12-28T00:00:27;4.65;;;2.58;;
81160;SDS011;70637;48.514;14.500;2023-12-28T00:02:53;4.35;;;2.50;;
81160;SDS011;70637;48.514;14.500;2023-12-28T00:05:18;4.20;;;2.63;;
81160;SDS011;70637;48.514;14.500;2023-12-28T00:07:44;4.85;;;2.67;;
81160;SDS011;70637;48.514;14.500;2023-12-28T00:10:10;4.30;;;2.83;;
81160;SDS011;70637;48.514;14.500;2023-12-28T00:12:35;4.55;;;2.45;;
81160;SDS011;70637;48.514;14.500;2023-12-28T00:15:01;4.75;;;2.72;;
81160;SDS011;70637;48.514;14.500;2023-12-28T00:17:27;6.15;;;2.70;;
81160;SDS011;70637;48.514;14.500;2023-12-28T00:19:53;4.93;;;2.65;;
81160;SDS011;70637;48.514;14.500;2023-12-28T00:22:19;3.97;;;2.40;;
81160;SDS011;70637;48.514;14.500;2023-12-28T00:24:45;4.10;;;2.30;;
81160;SDS011;70637;48.514;14.500;2023-12-28T00:27:10;4.65;;;2.65;;
81160;SDS011;70637;48.514;14.500;2023-12-28T00:29:36;6.35;;;2.65;;
81160;SDS011;70637;48.514;14.500;2023-12-28T00:32:06;5.50;;;2.60;;
81160;SDS011;70637;48.514;14.500;2023-12-28T00:34:32;4.53;;;2.90;;
81160;SDS011;70637;48.514;14.500;2023-12-28T00:36:57;3.75;;;2.28;;
81160;SDS011;70637;48.514;14.500;2023-12-28T00:39:23;4.68;;;2.35;;
81160;SDS011;70637;48.514;14.500;2023-12-28T00:41:49;3.92;;;2.30;;
81160;SDS011;70637;48.514;14.500;2023-12-28T00:44:14;4.35;;;2.30;;
81160;SDS011;70637;48.514;14.500;2023-12-28T00:46:40;4.60;;;2.38;;
81160;SDS011;70637;48.514;14.500;2023-12-28T00:49:05;3.08;;;2.17;;
81160;SDS011;70637;48.514;14.500;2023-12-28T00:51:31;4.22;;;2.30;;
81160;SDS011;70637;48.514;14.500;2023-12-28T00:53:57;4.82;;;2.60;;
81160;SDS011;70637;48.514;14.500;2023-12-28T00:56:22;3.63;;;2.25;;
81160;SDS011;70637;48.514;14.500;2023-12-28T00:58:48;4.13;;;2.42;;
81160;SDS011;70637;48.514;14.500;2023-12-28T01:01:14;4.30;;;2.47;;
81160;SDS011;70637;48.514;14.500;2023-12-28T01:03:40;3.58;;;2.38;;
81160;SDS011;70637;48.514;14.500;2023-12-28T01:06:06;3.95;;;2.45;;
81160;SDS011;70637;48.514;14.500;2023-12-28T01:08:31;3.60;;;2.30;;
81160;SDS011;70637;48.514;14.500;2023-12-28T01:10:59;4.38;;;2.50;;
81160;SDS011;70637;48.514;14.500;2023-12-28T01:13:24;5.82;;;2.38;;
81160;SDS011;70637;48.514;14.500;2023-12-28T01:15:50;3.70;;;2.42;;
81160;SDS011;70637;48.514;14.500;2023-12-28T01:18:16;3.90;;;2.10;;
81160;SDS011;70637;48.514;14.500;2023-12-28T01:20:42;4.70;;;2.40;;
81160;SDS011;70637;48.514;14.500;2023-12-28T01:23:08;2.97;;;1.98;;
81160;SDS011;70637;48.514;14.500;2023-12-28T01:25:34;3.67;;;2.53;;
81160;SDS011;70637;48.514;14.500;2023-12-28T01:28:00;3.97;;;2.10;;
81160;SDS011;70637;48.514;14.500;2023-12-28T01:30:26;4.10;;;2.45;;
81160;SDS011;70637;48.514;14.500;2023-12-28T01:32:52;3.83;;;2.25;;
81160;SDS011;70637;48.514;14.500;2023-12-28T01:35:18;3.50;;;2.30;;
81160;SDS011;70637;48.514;14.500;2023-12-28T01:37:44;4.60;;;2.20;;
81160;SDS011;70637;48.514;14.500;2023-12-28T01:40:10;3.60;;;2.30;;
81160;SDS011;70637;48.514;14.500;2023-12-28T01:42:36;4.53;;;2.30;;
81160;SDS011;70637;48.514;14.500;2023-12-28T01:45:02;3.35;;;2.22;;
81160;SDS011;70637;48.514;14.500;2023-12-28T01:47:28;3.67;;;2.20;;
81160;SDS011;70637;48.514;14.500;2023-12-28T01:49:54;3.65;;;2.35;;
81160;SDS011;70637;48.514;14.500;2023-12-28T01:52:21;4.60;;;2.50;;
81160;SDS011;70637;48.514;14.500;2023-12-28T01:54:47;3.53;;;2.22;;
81160;SDS011;70637;48.514;14.500;2023-12-28T01:57:13;3.92;;;2.28;;
81160;SDS011;70637;48.514;14.500;2023-12-28T01:59:40;4.47;;;2.33;;
81160;SDS011;70637;48.514;14.500;2023-12-28T02:02:06;3.72;;;2.10;;
81160;SDS011;70637;48.514;14.500;2023-12-28T02:04:32;3.58;;;2.30;;
81160;SDS011;70637;48.514;14.500;2023-12-28T02:06:58;4.10;;;2.33;;
81160;SDS011;70637;48.514;14.500;2023-12-28T02:09:25;4.75;;;2.45;;
81160;SDS011;70637;48.514;14.500;2023-12-28T02:11:51;3.17;;;2.30;;
81160;SDS011;70637;48.514;14.500;2023-12-28T02:14:18;3.33;;;1.70;;
81160;SDS011;70637;48.514;14.500;2023-12-28T02:16:49;3.67;;;2.17;;
81160;SDS011;70637;48.514;14.500;2023-12-28T02:19:32;3.58;;;2.10;;
81160;SDS011;70637;48.514;14.500;2023-12-28T02:22:11;3.45;;;1.98;;
81160;SDS011;70637;48.514;14.500;2023-12-28T02:27:26;3.55;;;2.22;;
81160;SDS011;70637;48.514;14.500;2023-12-28T02:29:52;3.20;;;1.90;;
81160;SDS011;70637;48.514;14.500;2023-12-28T02:32:34;2.67;;;1.85;;
81160;SDS011;70637;48.514;14.500;2023-12-28T02:35:08;3.75;;;1.90;;
81160;SDS011;70637;48.514;14.500;2023-12-28T02:37:39;4.18;;;2.20;;
81160;SDS011;70637;48.514;14.500;2023-12-28T02:40:06;2.88;;;2.00;;
81160;SDS011;70637;48.514;14.500;2023-12-28T02:42:32;4.18;;;2.08;;
81160;SDS011;70637;48.514;14.500;2023-12-28T02:44:58;3.60;;;2.10;;
81160;SDS011;70637;48.514;14.500;2023-12-28T02:47:24;2.70;;;1.85;;
81160;SDS011;70637;48.514;14.500;2023-12-28T02:49:50;2.95;;;1.80;;
81160;SDS011;70637;48.514;14.500;2023-12-28T02:52:16;3.83;;;1.98;;
81160;SDS011;70637;48.514;14.500;2023-12-28T02:54:41;3.13;;;1.80;;
81160;SDS011;70637;48.514;14.500;2023-12-28T02:57:07;3.15;;;1.98;;
81160;SDS011;70637;48.514;14.500;2023-12-28T02:59:33;3.03;;;1.98;;
81160;SDS011;70637;48.514;14.500;2023-12-28T03:01:59;3.92;;;2.15;;
81160;SDS011;70637;48.514;14.500;2023-12-28T03:04:24;3.63;;;1.92;;
81160;SDS011;70637;48.514;14.500;2023-12-28T03:06:50;3.17;;;1.80;;
81160;SDS011;70637;48.514;14.500;2023-12-28T03:09:16;2.85;;;1.92;;
81160;SDS011;70637;48.514;14.500;2023-12-28T03:11:41;2.75;;;1.70;;
81160;SDS011;70637;48.514;14.500;2023-12-28T03:14:07;3.35;;;2.13;;
81160;SDS011;70637;48.514;14.500;2023-12-28T03:16:32;2.85;;;1.77;;
81160;SDS011;70637;48.514;14.500;2023-12-28T03:18:58;2.75;;;1.75;;
81160;SDS011;70637;48.514;14.500;2023-12-28T03:21:24;2.80;;;1.80;;
81160;SDS011;70637;48.514;14.500;2023-12-28T03:23:50;3.42;;;2.30;;
81160;SDS011;70637;48.514;14.500;2023-12-28T03:26:16;3.00;;;2.03;;
81160;SDS011;70637;48.514;14.500;2023-12-28T03:28:41;3.58;;;2.00;;
81160;SDS011;70637;48.514;14.500;2023-12-28T03:31:07;3.38;;;2.00;;
81160;SDS011;70637;48.514;14.500;2023-12-28T03:33:32;2.58;;;1.90;;
81160;SDS011;70637;48.514;14.500;2023-12-28T03:35:58;3.28;;;2.13;;
81160;SDS011;70637;48.514;14.500;2023-12-28T03:38:24;3.25;;;2.10;;
81160;SDS011;70637;48.514;14.500;2023-12-28T03:40:49;2.88;;;1.90;;
81160;SDS011;70637;48.514;14.500;2023-12-28T03:43:16;3.08;;;2.00;;
81160;SDS011;70637;48.514;14.500;2023-12-28T03:45:42;3.05;;;1.90;;
81160;SDS011;70637;48.514;14.500;2023-12-28T03:48:08;2.75;;;1.80;;
81160;SDS011;70637;48.514;14.500;2023-12-28T03:50:34;3.35;;;1.58;;
81160;SDS011;70637;48.514;14.500;2023-12-28T03:52:59;2.60;;;1.88;;
81160;SDS011;70637;48.514;14.500;2023-12-28T03:55:25;3.50;;;1.88;;
81160;SDS011;70637;48.514;14.500;2023-12-28T03:57:51;2.88;;;1.60;;
81160;SDS011;70637;48.514;14.500;2023-12-28T04:00:16;2.42;;;1.77;;
81160;SDS011;70637;48.514;14.500;2023-12-28T04:02:42;3.10;;;1.80;;
81160;SDS011;70637;48.514;14.500;2023-12-28T04:05:07;3.65;;;1.90;;
81160;SDS011;70637;48.514;14.500;2023-12-28T04:07:33;3.25;;;1.88;;
81160;SDS011;70637;48.514;14.500;2023-12-28T04:09:59;2.25;;;1.67;;
81160;SDS011;70637;48.514;14.500;2023-12-28T04:12:24;2.35;;;1.73;;
81160;SDS011;70637;48.514;14.500;2023-12-28T04:14:50;2.55;;;1.70;;
81160;SDS011;70637;48.514;14.500;2023-12-28T04:17:16;3.60;;;2.08;;
81160;SDS011;70637;48.514;14.500;2023-12-28T04:19:42;3.10;;;1.95;;
81160;SDS011;70637;48.514;14.500;2023-12-28T04:22:07;2.50;;;1.90;;
81160;SDS011;70637;48.514;14.500;2023-12-28T04:24:33;2.97;;;1.92;;
81160;SDS011;70637;48.514;14.500;2023-12-28T04:26:58;3.03;;;1.67;;
81160;SDS011;70637;48.514;14.500;2023-12-28T04:29:24;4.15;;;1.90;;
81160;SDS011;70637;48.514;14.500;2023-12-28T04:31:50;2.60;;;1.60;;
81160;SDS011;70637;48.514;14.500;2023-12-28T04:34:16;3.75;;;2.00;;
81160;SDS011;70637;48.514;14.500;2023-12-28T04:36:42;2.53;;;1.65;;
81160;SDS011;70637;48.514;14.500;2023-12-28T04:39:09;2.10;;;1.48;;
81160;SDS011;70637;48.514;14.500;2023-12-28T04:41:35;3.22;;;1.60;;
81160;SDS011;70637;48.514;14.500;2023-12-28T04:44:00;2.55;;;1.77;;
81160;SDS011;70637;48.514;14.500;2023-12-28T04:46:26;2.75;;;1.83;;
81160;SDS011;70637;48.514;14.500;2023-12-28T04:48:52;2.35;;;1.60;;
81160;SDS011;70637;48.514;14.500;2023-12-28T04:51:17;2.30;;;1.60;;
81160;SDS011;70637;48.514;14.500;2023-12-28T04:53:43;2.78;;;1.80;;
81160;SDS011;70637;48.514;14.500;2023-12-28T04:56:09;2.38;;;1.65;;
81160;SDS011;70637;48.514;14.500;2023-12-28T04:58:34;2.50;;;1.75;;
81160;SDS011;70637;48.514;14.500;2023-12-28T05:01:03;2.33;;;1.70;;
81160;SDS011;70637;48.514;14.500;2023-12-28T05:03:29;2.40;;;1.52;;
81160;SDS011;70637;48.514;14.500;2023-12-28T05:05:54;3.15;;;1.67;;
81160;SDS011;70637;48.514;14.500;2023-12-28T05:08:20;2.20;;;1.50;;
81160;SDS011;70637;48.514;14.500;2023-12-28T05:10:45;2.53;;;1.50;;
81160;SDS011;70637;48.514;14.500;2023-12-28T05:13:11;2.42;;;1.55;;
81160;SDS011;70637;48.514;14.500;2023-12-28T05:15:36;2.47;;;1.60;;
81160;SDS011;70637;48.514;14.500;2023-12-28T05:18:02;2.53;;;1.30;;
81160;SDS011;70637;48.514;14.500;2023-12-28T05:20:29;2.70;;;1.75;;
81160;SDS011;70637;48.514;14.500;2023-12-28T05:22:54;2.13;;;1.55;;
81160;SDS011;70637;48.514;14.500;2023-12-28T05:25:20;1.90;;;1.42;;
81160;SDS011;70637;48.514;14.500;2023-12-28T05:27:45;2.13;;;1.30;;
81160;SDS011;70637;48.514;14.500;2023-12-28T05:30:11;2.33;;;1.60;;
81160;SDS011;70637;48.514;14.500;2023-12-28T05:32:37;2.60;;;1.70;;
81160;SDS011;70637;48.514;14.500;2023-12-28T05:35:03;2.00;;;1.40;;
81160;SDS011;70637;48.514;14.500;2023-12-28T05:37:29;2.20;;;1.30;;
81160;SDS011;70637;48.514;14.500;2023-12-28T05:39:55;1.95;;;1.27;;
81160;SDS011;70637;48.514;14.500;2023-12-28T05:42:20;2.65;;;1.50;;
81160;SDS011;70637;48.514;14.500;2023-12-28T05:44:46;2.58;;;1.60;;
81160;SDS011;70637;48.514;14.500;2023-12-28T05:47:12;2.08;;;1.30;;
81160;SDS011;70637;48.514;14.500;2023-12-28T05:49:37;2.70;;;1.42;;
81160;SDS011;70637;48.514;14.500;2023-12-28T05:52:03;2.08;;;1.48;;
81160;SDS011;70637;48.514;14.500;2023-12-28T05:54:29;1.90;;;1.33;;
81160;SDS011;70637;48.514;14.500;2023-12-28T05:56:55;1.92;;;1.40;;
81160;SDS011;70637;48.514;14.500;2023-12-28T05:59:21;1.80;;;1.40;;
81160;SDS011;70637;48.514;14.500;2023-12-28T06:01:47;1.55;;;1.10;;
81160;SDS011;70637;48.514;14.500;2023-12-28T06:04:13;2.22;;;1.30;;
81160;SDS011;70637;48.514;14.500;2023-12-28T06:06:38;2.00;;;1.50;;
81160;SDS011;70637;48.514;14.500;2023-12-28T06:09:04;2.30;;;1.40;;
81160;SDS011;70637;48.514;14.500;2023-12-28T06:11:30;2.30;;;1.40;;
81160;SDS011;70637;48.514;14.500;2023-12-28T06:13:56;2.10;;;1.40;;
81160;SDS011;70637;48.514;14.500;2023-12-28T06:16:22;2.25;;;1.20;;
81160;SDS011;70637;48.514;14.500;2023-12-28T06:18:48;1.60;;;1.20;;
81160;SDS011;70637;48.514;14.500;2023-12-28T06:21:13;2.55;;;1.42;;
81160;SDS011;70637;48.514;14.500;2023-12-28T06:23:39;2.05;;;1.50;;
81160;SDS011;70637;48.514;14.500;2023-12-28T06:26:06;1.83;;;1.33;;
81160;SDS011;70637;48.514;14.500;2023-12-28T06:28:31;1.50;;;1.15;;
81160;SDS011;70637;48.514;14.500;2023-12-28T06:30:58;1.80;;;1.30;;
81160;SDS011;70637;48.514;14.500;2023-12-28T06:33:26;2.08;;;1.33;;
81160;SDS011;70637;48.514;14.500;2023-12-28T06:35:53;2.03;;;1.40;;
81160;SDS011;70637;48.514;14.500;2023-12-28T06:38:19;1.92;;;1.20;;
81160;SDS011;70637;48.514;14.500;2023-12-28T06:40:45;1.45;;;1.20;;
81160;SDS011;70637;48.514;14.500;2023-12-28T06:43:10;1.45;;;1.13;;
81160;SDS011;70637;48.514;14.500;2023-12-28T06:45:36;1.55;;;1.23;;
81160;SDS011;70637;48.514;14.500;2023-12-28T06:48:01;2.00;;;1.30;;
81160;SDS011;70637;48.514;14.500;2023-12-28T06:50:27;1.83;;;1.30;;
81160;SDS011;70637;48.514;14.500;2023-12-28T06:52:53;1.98;;;1.40;;
81160;SDS011;70637;48.514;14.500;2023-12-28T06:55:18;2.05;;;1.35;;
81160;SDS011;70637;48.514;14.500;2023-12-28T06:57:44;1.52;;;1.17;;
81160;SDS011;70637;48.514;14.500;2023-12-28T07:00:10;1.60;;;1.30;;
81160;SDS011;70637;48.514;14.500;2023-12-28T07:02:36;1.35;;;1.10;;
81160;SDS011;70637;48.514;14.500;2023-12-28T07:05:01;1.95;;;1.30;;
81160;SDS011;70637;48.514;14.500;2023-12-28T07:07:29;1.77;;;1.30;;
81160;SDS011;70637;48.514;14.500;2023-12-28T07:09:54;1.95;;;1.40;;
81160;SDS011;70637;48.514;14.500;2023-12-28T07:12:20;2.03;;;1.20;;
81160;SDS011;70637;48.514;14.500;2023-12-28T07:14:45;1.65;;;1.23;;
81160;SDS011;70637;48.514;14.500;2023-12-28T07:17:11;1.27;;;1.15;;
81160;SDS011;70637;48.514;14.500;2023-12-28T07:19:42;2.20;;;1.30;;
81160;SDS011;70637;48.514;14.500;2023-12-28T07:22:10;1.80;;;1.30;;
81160;SDS011;70637;48.514;14.500;2023-12-28T07:24:36;2.05;;;1.20;;
81160;SDS011;70637;48.514;14.500;2023-12-28T07:27:01;2.33;;;1.27;;
81160;SDS011;70637;48.514;14.500;2023-12-28T07:29:27;2.65;;;1.38;;
81160;SDS011;70637;48.514;14.500;2023-12-28T07:31:53;2.00;;;1.27;;
81160;SDS011;70637;48.514;14.500;2023-12-28T07:34:19;2.55;;;1.30;;
81160;SDS011;70637;48.514;14.500;2023-12-28T07:36:45;3.75;;;1.40;;
81160;SDS011;70637;48.514;14.500;2023-12-28T07:39:10;2.13;;;1.40;;
81160;SDS011;70637;48.514;14.500;2023-12-28T07:41:36;2.35;;;1.30;;
81160;SDS011;70637;48.514;14.500;2023-12-28T07:44:02;2.42;;;1.42;;
81160;SDS011;70637;48.514;14.500;2023-12-28T07:46:28;3.10;;;1.63;;
81160;SDS011;70637;48.514;14.500;2023-12-28T07:48:54;2.47;;;1.50;;
81160;SDS011;70637;48.514;14.500;2023-12-28T07:51:19;2.58;;;1.60;;
81160;SDS011;70637;48.514;14.500;2023-12-28T07:53:45;1.98;;;1.40;;
81160;SDS011;70637;48.514;14.500;2023-12-28T07:56:11;2.38;;;1.50;;
81160;SDS011;70637;48.514;14.500;2023-12-28T07:58:36;3.85;;;1.67;;
81160;SDS011;70637;48.514;14.500;2023-12-28T08:01:08;3.08;;;1.55;;
81160;SDS011;70637;48.514;14.500;2023-12-28T08:03:35;2.72;;;1.40;;
81160;SDS011;70637;48.514;14.500;2023-12-28T08:06:00;2.70;;;1.70;;
81160;SDS011;70637;48.514;14.500;2023-12-28T08:08:26;2.60;;;1.63;;
81160;SDS011;70637;48.514;14.500;2023-12-28T08:10:52;2.97;;;1.67;;
81160;SDS011;70637;48.514;14.500;2023-12-28T08:13:17;3.20;;;1.70;;
81160;SDS011;70637;48.514;14.500;2023-12-28T08:15:43;3.35;;;1.67;;
81160;SDS011;70637;48.514;14.500;2023-12-28T08:18:11;3.08;;;1.80;;
81160;SDS011;70637;48.514;14.500;2023-12-28T08:20:37;3.45;;;1.50;;
81160;SDS011;70637;48.514;14.500;2023-12-28T08:23:02;5.47;;;1.83;;
81160;SDS011;70637;48.514;14.500;2023-12-28T08:25:28;2.50;;;1.63;;
81160;SDS011;70637;48.514;14.500;2023-12-28T08:27:54;5.15;;;1.80;;
81160;SDS011;70637;48.514;14.500;2023-12-28T08:30:20;3.47;;;1.83;;
81160;SDS011;70637;48.514;14.500;2023-12-28T08:32:46;4.60;;;1.95;;
81160;SDS011;70637;48.514;14.500;2023-12-28T08:35:12;4.65;;;2.10;;
81160;SDS011;70637;48.514;14.500;2023-12-28T08:37:37;2.30;;;1.63;;
81160;SDS011;70637;48.514;14.500;2023-12-28T08:40:03;4.35;;;1.67;;
81160;SDS011;70637;48.514;14.500;2023-12-28T08:42:29;3.53;;;1.88;;
81160;SDS011;70637;48.514;14.500;2023-12-28T08:44:55;5.22;;;2.03;;
81160;SDS011;70637;48.514;14.500;2023-12-28T08:47:20;2.70;;;1.60;;
81160;SDS011;70637;48.514;14.500;2023-12-28T08:49:47;4.28;;;1.70;;
81160;SDS011;70637;48.514;14.500;2023-12-28T08:52:13;2.80;;;1.75;;
81160;SDS011;70637;48.514;14.500;2023-12-28T08:54:39;2.95;;;1.70;;
81160;SDS011;70637;48.514;14.500;2023-12-28T08:57:05;4.55;;;1.85;;
81160;SDS011;70637;48.514;14.500;2023-12-28T08:59:33;2.80;;;1.65;;
81160;SDS011;70637;48.514;14.500;2023-12-28T09:02:01;4.60;;;2.03;;
81160;SDS011;70637;48.514;14.500;2023-12-28T09:04:27;2.42;;;1.55;;
81160;SDS011;70637;48.514;14.500;2023-12-28T09:06:52;3.08;;;1.60;;
81160;SDS011;70637;48.514;14.500;2023-12-28T09:09:20;4.85;;;1.80;;
81160;SDS011;70637;48.514;14.500;2023-12-28T09:11:46;4.60;;;1.73;;
81160;SDS011;70637;48.514;14.500;2023-12-28T09:14:12;5.15;;;2.00;;
81160;SDS011;70637;48.514;14.500;2023-12-28T09:16:37;3.92;;;1.85;;
81160;SDS011;70637;48.514;14.500;2023-12-28T09:19:04;4.82;;;1.80;;
81160;SDS011;70637;48.514;14.500;2023-12-28T09:21:30;5.35;;;2.20;;
81160;SDS011;70637;48.514;14.500;2023-12-28T09:23:55;3.42;;;2.10;;
81160;SDS011;70637;48.514;14.500;2023-12-28T09:26:21;4.88;;;1.98;;
81160;SDS011;70637;48.514;14.500;2023-12-28T09:28:46;2.72;;;1.80;;
81160;SDS011;70637;48.514;14.500;2023-12-28T09:31:12;4.97;;;2.15;;
81160;SDS011;70637;48.514;14.500;2023-12-28T09:33:38;4.38;;;2.00;;
81160;SDS011;70637;48.514;14.500;2023-12-28T09:36:03;7.38;;;2.47;;
81160;SDS011;70637;48.514;14.500;2023-12-28T09:38:29;3.50;;;2.00;;
81160;SDS011;70637;48.514;14.500;2023-12-28T09:40:55;4.43;;;1.83;;
81160;SDS011;70637;48.514;14.500;2023-12-28T09:43:30;3.58;;;1.98;;
81160;SDS011;70637;48.514;14.500;2023-12-28T09:46:05;4.10;;;2.20;;
81160;SDS011;70637;48.514;14.500;2023-12-28T09:48:32;3.53;;;2.10;;
81160;SDS011;70637;48.514;14.500;2023-12-28T09:50:59;3.78;;;1.90;;
81160;SDS011;70637;48.514;14.500;2023-12-28T09:53:25;5.00;;;2.20;;
81160;SDS011;70637;48.514;14.500;2023-12-28T09:55:51;5.45;;;2.28;;
81160;SDS011;70637;48.514;14.500;2023-12-28T09:58:18;4.38;;;2.33;;
81160;SDS011;70637;48.514;14.500;2023-12-28T10:00:45;4.50;;;1.88;;
81160;SDS011;70637;48.514;14.500;2023-12-28T10:03:13;4.32;;;2.08;;
81160;SDS011;70637;48.514;14.500;2023-12-28T10:05:43;3.83;;;2.03;;
81160;SDS011;70637;48.514;14.500;2023-12-28T10:08:12;4.63;;;2.17;;
81160;SDS011;70637;48.514;14.500;2023-12-28T10:10:38;4.53;;;2.13;;
81160;SDS011;70637;48.514;14.500;2023-12-28T10:13:06;3.20;;;1.70;;
81160;SDS011;70637;48.514;14.500;2023-12-28T10:15:32;3.45;;;1.90;;
81160;SDS011;70637;48.514;14.500;2023-12-28T10:17:58;4.93;;;2.05;;
81160;SDS011;70637;48.514;14.500;2023-12-28T10:20:28;3.90;;;2.20;;
81160;SDS011;70637;48.514;14.500;2023-12-28T10:22:54;3.45;;;1.88;;
81160;SDS011;70637;48.514;14.500;2023-12-28T10:25:19;3.20;;;1.90;;
81160;SDS011;70637;48.514;14.500;2023-12-28T10:27:45;3.45;;;1.95;;
81160;SDS011;70637;48.514;14.500;2023-12-28T10:30:15;3.72;;;1.75;;
81160;SDS011;70637;48.514;14.500;2023-12-28T10:32:40;5.85;;;1.67;;
81160;SDS011;70637;48.514;14.500;2023-12-28T10:35:06;5.07;;;1.70;;
81160;SDS011;70637;48.514;14.500;2023-12-28T10:37:32;2.75;;;1.73;;
81160;SDS011;70637;48.514;14.500;2023-12-28T10:40:01;2.97;;;1.88;;
81160;SDS011;70637;48.514;14.500;2023-12-28T10:42:57;4.82;;;1.90;;
81160;SDS011;70637;48.514;14.500;2023-12-28T10:45:24;3.50;;;1.88;;
81160;SDS011;70637;48.514;14.500;2023-12-28T10:47:54;2.95;;;1.73;;
81160;SDS011;70637;48.514;14.500;2023-12-28T10:50:37;3.45;;;1.67;;
81160;SDS011;70637;48.514;14.500;2023-12-28T10:53:15;5.33;;;1.80;;
81160;SDS011;70637;48.514;14.500;2023-12-28T10:56:03;6.20;;;2.28;;
81160;SDS011;70637;48.514;14.500;2023-12-28T10:58:51;5.88;;;1.88;;
81160;SDS011;70637;48.514;14.500;2023-12-28T11:01:24;4.05;;;1.90;;
81160;SDS011;70637;48.514;14.500;2023-12-28T11:04:02;5.93;;;2.08;;
81160;SDS011;70637;48.514;14.500;2023-12-28T11:06:33;6.68;;;2.05;;
81160;SDS011;70637;48.514;14.500;2023-12-28T11:09:01;3.95;;;1.90;;
81160;SDS011;70637;48.514;14.500;2023-12-28T11:11:28;8.38;;;2.20;;
81160;SDS011;70637;48.514;14.500;2023-12-28T11:13:55;8.27;;;2.47;;
81160;SDS011;70637;48.514;14.500;2023-12-28T11:16:25;7.65;;;2.10;;
81160;SDS011;70637;48.514;14.500;2023-12-28T11:18:51;8.95;;;2.63;;
81160;SDS011;70637;48.514;14.500;2023-12-28T11:21:19;7.28;;;2.28;;
81160;SDS011;70637;48.514;14.500;2023-12-28T11:23:47;9.25;;;2.70;;
81160;SDS011;70637;48.514;14.500;2023-12-28T11:26:17;8.55;;;2.53;;
81160;SDS011;70637;48.514;14.500;2023-12-28T11:28:46;5.80;;;2.40;;
81160;SDS011;70637;48.514;14.500;2023-12-28T11:31:15;10.20;;;2.60;;
81160;SDS011;70637;48.514;14.500;2023-12-28T11:33:46;9.65;;;3.15;;
81160;SDS011;70637;48.514;14.500;2023-12-28T11:36:22;6.03;;;2.50;;
81160;SDS011;70637;48.514;14.500;2023-12-28T11:38:58;6.28;;;2.58;;
81160;SDS011;70637;48.514;14.500;2023-12-28T11:41:31;7.05;;;2.40;;
81160;SDS011;70637;48.514;14.500;2023-12-28T11:44:03;8.13;;;2.78;;
81160;SDS011;70637;48.514;14.500;2023-12-28T11:46:30;6.45;;;2.30;;
81160;SDS011;70637;48.514;14.500;2023-12-28T11:49:05;7.10;;;2.85;;
81160;SDS011;70637;48.514;14.500;2023-12-28T11:51:32;4.37;;;2.50;;
81160;SDS011;70637;48.514;14.500;2023-12-28T11:53:59;5.10;;;2.40;;
81160;SDS011;70637;48.514;14.500;2023-12-28T11:56:26;7.85;;;2.30;;
81160;SDS011;70637;48.514;14.500;2023-12-28T11:58:52;4.95;;;2.45;;
81160;SDS011;70637;48.514;14.500;2023-12-28T12:01:17;11.00;;;2.67;;
81160;SDS011;70637;48.514;14.500;2023-12-28T12:03:43;8.55;;;2.80;;
81160;SDS011;70637;48.514;14.500;2023-12-28T12:06:09;6.88;;;2.63;;
81160;SDS011;70637;48.514;14.500;2023-12-28T12:08:35;7.75;;;2.90;;
81160;SDS011;70637;48.514;14.500;2023-12-28T12:11:07;6.97;;;2.78;;
81160;SDS011;70637;48.514;14.500;2023-12-28T12:13:33;7.30;;;2.55;;
81160;SDS011;70637;48.514;14.500;2023-12-28T12:15:59;4.20;;;2.08;;
81160;SDS011;70637;48.514;14.500;2023-12-28T12:18:27;8.38;;;2.70;;
81160;SDS011;70637;48.514;14.500;2023-12-28T12:20:54;6.05;;;2.30;;
81160;SDS011;70637;48.514;14.500;2023-12-28T12:23:20;6.65;;;2.85;;
81160;SDS011;70637;48.514;14.500;2023-12-28T12:25:46;8.07;;;2.67;;
81160;SDS011;70637;48.514;14.500;2023-12-28T12:28:12;8.93;;;3.25;;
81160;SDS011;70637;48.514;14.500;2023-12-28T12:30:37;5.90;;;2.25;;
81160;SDS011;70637;48.514;14.500;2023-12-28T12:33:03;6.45;;;2.58;;
81160;SDS011;70637;48.514;14.500;2023-12-28T12:35:29;6.35;;;2.28;;
81160;SDS011;70637;48.514;14.500;2023-12-28T12:37:56;7.80;;;2.50;;
81160;SDS011;70637;48.514;14.500;2023-12-28T12:40:22;6.53;;;2.53;;
81160;SDS011;70637;48.514;14.500;2023-12-28T12:42:54;8.32;;;2.25;;
81160;SDS011;70637;48.514;14.500;2023-12-28T12:45:20;7.22;;;2.67;;
81160;SDS011;70637;48.514;14.500;2023-12-28T12:47:49;5.90;;;2.30;;
81160;SDS011;70637;48.514;14.500;2023-12-28T12:50:16;9.43;;;2.95;;
81160;SDS011;70637;48.514;14.500;2023-12-28T12:52:42;9.35;;;2.50;;
81160;SDS011;70637;48.514;14.500;2023-12-28T12:55:10;4.63;;;2.60;;
81160;SDS011;70637;48.514;14.500;2023-12-28T12:57:37;6.78;;;2.63;;
81160;SDS011;70637;48.514;14.500;2023-12-28T13:00:04;7.03;;;2.25;;
81160;SDS011;70637;48.514;14.500;2023-12-28T13:02:33;5.90;;;2.45;;
81160;SDS011;70637;48.514;14.500;2023-12-28T13:05:01;7.90;;;2.47;;
81160;SDS011;70637;48.514;14.500;2023-12-28T13:07:28;6.90;;;2.63;;
81160;SDS011;70637;48.514;14.500;2023-12-28T13:09:54;5.82;;;2.20;;
81160;SDS011;70637;48.514;14.500;2023-12-28T13:12:20;7.53;;;2.60;;
81160;SDS011;70637;48.514;14.500;2023-12-28T13:14:46;6.63;;;2.40;;
81160;SDS011;70637;48.514;14.500;2023-12-28T13:17:12;6.32;;;2.35;;
81160;SDS011;70637;48.514;14.500;2023-12-28T13:19:37;7.05;;;2.22;;
81160;SDS011;70637;48.514;14.500;2023-12-28T13:22:03;8.40;;;2.40;;
81160;SDS011;70637;48.514;14.500;2023-12-28T13:24:30;4.10;;;2.45;;
81160;SDS011;70637;48.514;14.500;2023-12-28T13:26:56;8.82;;;2.70;;
81160;SDS011;70637;48.514;14.500;2023-12-28T13:29:22;9.10;;;2.60;;
81160;SDS011;70637;48.514;14.500;2023-12-28T13:31:48;8.45;;;2.25;;
81160;SDS011;70637;48.514;14.500;2023-12-28T13:34:15;6.93;;;2.35;;
81160;SDS011;70637;48.514;14.500;2023-12-28T13:36:41;11.95;;;2.60;;
81160;SDS011;70637;48.514;14.500;2023-12-28T13:39:07;8.57;;;2.85;;
81160;SDS011;70637;48.514;14.500;2023-12-28T13:41:36;7.38;;;2.10;;
81160;SDS011;70637;48.514;14.500;2023-12-28T13:44:02;6.55;;;2.72;;
81160;SDS011;70637;48.514;14.500;2023-12-28T13:46:30;7.95;;;2.50;;
81160;SDS011;70637;48.514;14.500;2023-12-28T13:48:55;10.43;;;2.53;;
81160;SDS011;70637;48.514;14.500;2023-12-28T13:51:22;11.35;;;2.83;;
81160;SDS011;70637;48.514;14.500;2023-12-28T13:53:48;7.97;;;3.13;;
81160;SDS011;70637;48.514;14.500;2023-12-28T13:56:13;7.63;;;2.60;;
81160;SDS011;70637;48.514;14.500;2023-12-28T13:58:39;9.02;;;2.78;;
81160;SDS011;70637;48.514;14.500;2023-12-28T14:01:05;10.15;;;2.70;;
81160;SDS011;70637;48.514;14.500;2023-12-28T14:03:30;10.65;;;3.28;;
81160;SDS011;70637;48.514;14.500;2023-12-28T14:05:56;9.65;;;2.97;;
81160;SDS011;70637;48.514;14.500;2023-12-28T14:08:22;11.68;;;2.80;;
81160;SDS011;70637;48.514;14.500;2023-12-28T14:10:47;10.55;;;3.00;;
81160;SDS011;70637;48.514;14.500;2023-12-28T14:13:13;9.98;;;3.70;;
81160;SDS011;70637;48.514;14.500;2023-12-28T14:15:39;7.82;;;2.85;;
81160;SDS011;70637;48.514;14.500;2023-12-28T14:18:04;11.15;;;3.40;;
81160;SDS011;70637;48.514;14.500;2023-12-28T14:20:32;11.45;;;3.05;;
81160;SDS011;70637;48.514;14.500;2023-12-28T14:22:57;12.60;;;3.65;;
81160;SDS011;70637;48.514;14.500;2023-12-28T14:25:23;9.80;;;3.30;;
81160;SDS011;70637;48.514;14.500;2023-12-28T14:27:49;8.32;;;3.00;;
81160;SDS011;70637;48.514;14.500;2023-12-28T14:30:16;7.38;;;3.20;;
81160;SDS011;70637;48.514;14.500;2023-12-28T14:32:42;9.35;;;3.70;;